»·PEaware :: N700DK KEUG-KSLE

N700DK :: KEUG-KSLE

FLIGHT INFORMATION

Flight Status: Arrived
Operator: Privately registered:
United States
More flights under this callsign
Pilot: Brendan O. (14500)
Aircraft: CESSNA 340
(C340)
More flights by this aircraft type
Origin: KEUG Mahlon Sweet
United States
Destination: KSLE McNary
United States
More flights between these airports :: More routes between these airports
Route: EUG1 CVO NECIP
File this flight plan on PilotEdge
Remarks:
Altitude:
(Current/Filed)
5,000ft
Speed:
(Current/Filed)
185kts
Departed: 07-Aug-20 08:30 AM
Arrived: 07-Aug-20 09:33 AM
Distance/Time
Traveled:
48nm/1:02
Distance/Time
To Go:
Arrived

Flight Plot

Page will automatically refresh every two minutes.

Flight plan parsing failed; only flown route is shown


Map Options




Map Legend


Flown Route
Filed Route
Departure Airport
Arrival Airport
Navaid (VOR, NDB)
Fix

Horizontal Profiles

Position Reports

Time Latitude Longitude Heading Altitude Ground
Speed
07-Aug-20 08:16 44.119691 -123.214961 337 365ft 0kts
07-Aug-20 08:17 44.119691 -123.214961 337 365ft 0kts
07-Aug-20 08:18 44.119691 -123.214961 337 365ft 0kts
07-Aug-20 08:19 44.119691 -123.214961 337 365ft 0kts
07-Aug-20 08:20 44.119691 -123.214961 337 365ft 0kts
07-Aug-20 08:21 44.119691 -123.214961 337 365ft 0kts
07-Aug-20 08:22 44.121157 -123.214340 336 366ft 17kts
07-Aug-20 08:23 44.125484 -123.217104 358 361ft 17kts
07-Aug-20 08:24 44.130886 -123.217176 359 358ft 20kts
07-Aug-20 08:25 44.135309 -123.217970 266 355ft 0kts
07-Aug-20 08:26 44.135309 -123.217970 266 355ft 0kts
07-Aug-20 08:27 44.135309 -123.217970 266 355ft 0kts
07-Aug-20 08:28 44.135303 -123.218302 270 355ft 8kts
07-Aug-20 08:29 44.129819 -123.219073 179 363ft 100kts
07-Aug-20 08:30 44.096964 -123.215253 172 1901ft 122kts
07-Aug-20 08:31 44.061097 -123.208033 172 3283ft 142kts
07-Aug-20 08:32 44.018360 -123.202294 179 4248ft 163kts
07-Aug-20 08:33 44.006201 -123.247154 326 4926ft 162kts
07-Aug-20 08:34 44.052785 -123.257882 350 4947ft 175kts
07-Aug-20 08:35 44.101335 -123.262785 357 4974ft 173kts
07-Aug-20 08:36 44.150303 -123.264162 357 4989ft 175kts
07-Aug-20 08:37 44.199401 -123.268034 356 4989ft 175kts
07-Aug-20 08:38 44.248485 -123.272301 356 4989ft 176kts
07-Aug-20 08:39 44.292228 -123.275459 356 4989ft 177kts
07-Aug-20 08:40 44.320569 -123.278017 356 4989ft 177kts
07-Aug-20 08:41 44.370015 -123.282342 356 4989ft 177kts
07-Aug-20 08:42 44.419265 -123.286671 356 4989ft 177kts
07-Aug-20 08:43 44.468486 -123.289318 18 4971ft 178kts
07-Aug-20 08:44 44.501463 -123.237947 49 4989ft 178kts
07-Aug-20 08:45 44.533677 -123.184747 48 4989ft 178kts
07-Aug-20 08:46 44.565943 -123.132032 48 4989ft 178kts
07-Aug-20 08:47 44.597921 -123.079355 49 4619ft 179kts
07-Aug-20 08:48 44.630677 -123.025756 48 3769ft 182kts
07-Aug-20 08:49 44.663446 -122.972209 48 2929ft 178kts
07-Aug-20 08:50 44.693190 -122.923589 48 2920ft 150kts
07-Aug-20 08:51 44.719844 -122.879545 48 2969ft 145kts
07-Aug-20 08:52 44.753926 -122.875665 330 2628ft 123kts
07-Aug-20 08:53 44.782875 -122.899037 330 2062ft 110kts
07-Aug-20 08:54 44.807488 -122.918815 330 2076ft 98kts
07-Aug-20 08:55 44.832358 -122.938588 332 1777ft 105kts
07-Aug-20 08:56 44.857684 -122.959364 332 1207ft 105kts
07-Aug-20 08:57 44.882415 -122.979569 329 750ft 102kts
07-Aug-20 08:58 44.908684 -123.000781 331 837ft 121kts
07-Aug-20 08:59 44.943223 -123.027435 328 1962ft 151kts
07-Aug-20 09:00 44.979881 -123.059538 330 2926ft 157kts
07-Aug-20 09:01 45.016473 -123.095222 299 3518ft 169kts
07-Aug-20 09:02 45.038208 -123.155054 300 3655ft 179kts
07-Aug-20 09:03 45.078996 -123.160793 51 3732ft 178kts
07-Aug-20 09:04 45.060554 -123.107479 163 3790ft 183kts
07-Aug-20 09:05 45.012513 -123.085255 150 3706ft 179kts
07-Aug-20 09:06 44.967449 -123.074022 217 3681ft 175kts
07-Aug-20 09:07 44.963344 -123.133206 312 3661ft 172kts
07-Aug-20 09:08 45.002842 -123.170786 330 3605ft 171kts
07-Aug-20 09:09 45.045521 -123.191254 19 3604ft 163kts
07-Aug-20 09:10 45.056230 -123.136799 107 3775ft 160kts
07-Aug-20 09:11 45.024118 -123.094194 154 3753ft 165kts
07-Aug-20 09:12 44.981417 -123.072165 188 3784ft 166kts
07-Aug-20 09:14 44.960634 -123.122393 247 3797ft 163kts
07-Aug-20 09:15 44.921879 -123.126630 136 3737ft 166kts
07-Aug-20 09:16 44.888082 -123.079115 135 3368ft 177kts
07-Aug-20 09:17 44.852013 -123.033008 135 2985ft 168kts
07-Aug-20 09:18 44.820693 -122.986332 136 2924ft 160kts
07-Aug-20 09:19 44.788854 -122.944398 135 2995ft 157kts
07-Aug-20 09:20 44.759160 -122.900020 129 3058ft 156kts
07-Aug-20 09:21 44.727812 -122.858488 163 2974ft 161kts
07-Aug-20 09:22 44.684934 -122.852050 185 2981ft 156kts
07-Aug-20 09:23 44.648381 -122.832459 103 2904ft 155kts
07-Aug-20 09:24 44.674049 -122.812400 327 3007ft 143kts
07-Aug-20 09:25 44.708424 -122.842079 328 2982ft 145kts
07-Aug-20 09:26 44.743812 -122.870962 332 2888ft 149kts
07-Aug-20 09:27 44.777639 -122.894905 332 2141ft 119kts
07-Aug-20 09:28 44.801251 -122.914610 329 2073ft 89kts
07-Aug-20 09:29 44.822133 -122.931353 334 2085ft 85kts
07-Aug-20 09:30 44.846682 -122.949602 330 1581ft 113kts
07-Aug-20 09:31 44.873102 -122.972583 329 878ft 109kts
07-Aug-20 09:32 44.898681 -122.992726 332 352ft 93kts
07-Aug-20 09:32 44.909036 -123.002578 272 206ft 6kts

Navigation Log

Ident Type
Flight plan parsing failed, navigation log unavailable